Time;durP1;ratioP1;P1;durP2;ratioP2;P2;SDS_P1;SDS_P2;PMS_P1;PMS_P2;Temp;Humidity;BMP_temperature;BMP_pressure;BME280_temperature;BME280_humidity;BME280_pressure;Samples;Min_cycle;Max_cycle;Signal;HPM_P1;HPM_P2
2022/03/28 00:01:40;;;;;;;19.63;12.27;;;6.00;99.90;;;;;;5045960;28;22170;-46
2022/03/28 00:04:08;;;;;;;21.03;12.57;;;6.00;99.90;;;;;;5060592;28;20613;-49
2022/03/28 00:06:35;;;;;;;7.40;6.33;;;6.00;99.90;;;;;;5056085;28;20238;-45
2022/03/28 00:09:05;;;;;;;8.90;5.93;;;6.00;99.90;;;;;;5064157;28;20195;-48
2022/03/28 00:11:32;;;;;;;7.30;5.83;;;6.00;99.90;;;;;;5060643;28;20197;-48
2022/03/28 00:14:00;;;;;;;7.47;5.30;;;6.00;99.90;;;;;;5063897;28;20203;-46
2022/03/28 00:16:28;;;;;;;7.97;4.87;;;6.00;99.90;;;;;;5052861;28;20226;-45
2022/03/28 00:18:55;;;;;;;5.93;4.57;;;6.00;99.90;;;;;;5049833;28;20213;-47
2022/03/28 00:21:23;;;;;;;6.13;4.37;;;6.00;99.90;;;;;;5060193;28;20282;-48
2022/03/28 00:23:49;;;;;;;6.83;4.47;;;6.00;99.90;;;;;;5058840;28;20663;-47
2022/03/28 00:26:17;;;;;;;5.77;5.17;;;5.90;99.90;;;;;;5059951;28;20729;-50
2022/03/28 00:28:43;;;;;;;6.10;4.60;;;6.00;99.90;;;;;;5063024;28;20564;-46
2022/03/28 00:31:10;;;;;;;8.00;5.50;;;5.90;99.90;;;;;;5056329;28;20208;-46
2022/03/28 00:33:37;;;;;;;9.03;6.40;;;5.90;99.90;;;;;;5051691;28;20202;-43
2022/03/28 00:36:05;;;;;;;7.93;5.50;;;5.90;99.90;;;;;;5062570;28;20242;-47
2022/03/28 00:38:34;;;;;;;9.13;5.97;;;5.90;99.90;;;;;;5055116;28;20194;-45
2022/03/28 00:41:01;;;;;;;6.77;6.07;;;5.90;99.90;;;;;;5063278;28;20206;-43
2022/03/28 00:43:28;;;;;;;8.77;5.60;;;5.90;99.90;;;;;;5059265;28;20917;-47
2022/03/28 00:45:54;;;;;;;6.77;5.23;;;5.90;99.90;;;;;;5056339;28;20210;-44
2022/03/28 00:48:22;;;;;;;6.83;5.43;;;5.80;99.90;;;;;;5046012;28;20607;-45
2022/03/28 00:50:49;;;;;;;8.30;5.60;;;5.90;99.90;;;;;;5063200;28;20206;-44
2022/03/28 00:53:17;;;;;;;7.90;6.40;;;5.90;99.90;;;;;;5057194;28;20203;-46
2022/03/28 00:55:46;;;;;;;10.77;5.73;;;5.90;99.90;;;;;;5060770;28;20729;-43
2022/03/28 00:58:13;;;;;;;11.40;7.37;;;5.90;99.90;;;;;;5060715;28;20198;-47
2022/03/28 01:00:40;;;;;;;11.47;7.47;;;5.90;99.90;;;;;;5060732;28;20205;-45
2022/03/28 01:03:07;;;;;;;12.30;8.83;;;5.90;99.90;;;;;;5052899;28;20210;-46
2022/03/28 01:05:34;;;;;;;14.07;9.03;;;5.90;99.90;;;;;;5051502;28;20220;-46
2022/03/28 01:08:01;;;;;;;15.73;8.87;;;5.80;99.90;;;;;;5061951;28;20277;-43
2022/03/28 01:10:30;;;;;;;11.57;8.30;;;5.80;99.90;;;;;;5054023;28;20804;-42
2022/03/28 01:12:58;;;;;;;12.53;8.57;;;5.80;99.90;;;;;;5061905;28;20201;-44
2022/03/28 01:15:25;;;;;;;11.57;7.70;;;5.80;99.90;;;;;;5055961;28;20815;-43
2022/03/28 01:18:09;;;;;;;11.10;7.37;;;5.80;99.90;;;;;;5056694;28;20211;-44
2022/03/28 01:20:38;;;;;;;11.97;7.97;;;5.80;99.90;;;;;;5042976;28;20907;-44
2022/03/28 01:23:08;;;;;;;11.60;7.47;;;5.80;99.90;;;;;;5060025;28;20721;-45
2022/03/28 01:25:35;;;;;;;13.80;7.03;;;5.90;99.90;;;;;;5053746;28;20405;-43
2022/03/28 01:28:03;;;;;;;11.43;7.30;;;5.80;99.90;;;;;;5062046;28;20202;-48
2022/03/28 01:30:32;;;;;;;13.83;7.30;;;5.80;99.90;;;;;;5058433;28;20190;-43
2022/03/28 01:33:01;;;;;;;16.57;8.87;;;5.80;99.90;;;;;;5056876;28;20224;-43
2022/03/28 01:35:30;;;;;;;14.17;9.23;;;5.80;99.90;;;;;;5044586;28;20217;-42
2022/03/28 01:37:57;;;;;;;11.93;8.53;;;5.80;99.90;;;;;;5061668;28;20191;-43
2022/03/28 01:40:25;;;;;;;11.33;8.60;;;5.80;99.90;;;;;;5058529;28;20206;-44
2022/03/28 01:42:53;;;;;;;13.17;8.53;;;5.70;99.90;;;;;;5057117;28;20267;-43
2022/03/28 01:45:19;;;;;;;11.07;7.43;;;5.70;99.90;;;;;;5058053;28;20225;-48
2022/03/28 01:47:46;;;;;;;12.00;7.60;;;5.60;99.90;;;;;;5061411;28;20293;-47
2022/03/28 01:50:14;;;;;;;8.03;7.13;;;5.50;99.90;;;;;;5047093;28;20206;-43
2022/03/28 01:52:42;;;;;;;8.33;6.60;;;5.40;99.90;;;;;;5060008;28;20913;-44
2022/03/28 01:55:10;;;;;;;9.23;6.50;;;5.50;99.90;;;;;;5060904;28;20230;-46
2022/03/28 01:57:39;;;;;;;5.97;5.40;;;5.50;99.90;;;;;;5054228;28;20206;-44
2022/03/28 02:00:07;;;;;;;6.10;5.33;;;5.40;99.90;;;;;;5061737;28;20561;-45
2022/03/28 02:02:36;;;;;;;7.87;5.63;;;5.40;99.90;;;;;;5059145;28;20190;-43
2022/03/28 02:05:03;;;;;;;8.77;5.47;;;5.50;99.90;;;;;;5056567;28;20238;-45
2022/03/28 02:07:30;;;;;;;7.70;4.97;;;5.40;99.90;;;;;;5043543;28;20191;-43
2022/03/28 02:09:57;;;;;;;8.67;5.83;;;5.40;99.90;;;;;;5061993;28;20205;-43
2022/03/28 02:12:24;;;;;;;7.53;5.47;;;5.40;99.90;;;;;;5053424;28;20298;-45
2022/03/28 02:14:52;;;;;;;8.33;6.60;;;5.50;99.90;;;;;;5058053;28;20301;-42
2022/03/28 02:17:19;;;;;;;8.77;6.37;;;5.50;99.90;;;;;;5057675;28;20195;-44
2022/03/28 02:19:46;;;;;;;11.10;7.07;;;5.50;99.90;;;;;;5056442;28;20836;-45
2022/03/28 02:22:13;;;;;;;11.83;6.93;;;5.50;99.90;;;;;;5046699;28;20211;-45
2022/03/28 02:24:40;;;;;;;15.03;8.90;;;5.40;99.90;;;;;;5061767;28;20222;-44
2022/03/28 02:27:07;;;;;;;14.80;9.57;;;5.40;99.90;;;;;;5063828;28;20276;-45
2022/03/28 02:29:34;;;;;;;15.20;10.43;;;5.40;99.90;;;;;;5059245;28;20278;-46
2022/03/28 02:32:04;;;;;;;17.63;10.90;;;5.40;99.90;;;;;;5065372;28;20203;-45
2022/03/28 02:34:30;;;;;;;20.13;12.10;;;5.40;99.90;;;;;;5056257;28;20329;-43
2022/03/28 02:36:58;;;;;;;21.37;12.57;;;5.40;99.90;;;;;;5065338;28;20187;-45
2022/03/28 02:39:25;;;;;;;20.23;12.53;;;5.40;99.90;;;;;;5049460;28;20194;-47
2022/03/28 02:41:52;;;;;;;22.83;13.27;;;5.40;99.90;;;;;;5065646;28;20191;-49
2022/03/28 02:44:19;;;;;;;25.47;13.63;;;5.50;99.90;;;;;;5057246;28;20230;-53
2022/03/28 02:46:46;;;;;;;25.13;14.60;;;5.40;99.90;;;;;;5063971;28;20219;-48
2022/03/28 02:49:14;;;;;;;21.43;13.77;;;5.50;99.90;;;;;;5060592;28;20230;-51
2022/03/28 02:51:42;;;;;;;24.47;15.43;;;5.50;99.90;;;;;;5062393;28;20280;-51
2022/03/28 02:54:08;;;;;;;26.80;14.10;;;5.40;99.90;;;;;;5050182;28;20211;-52
2022/03/28 02:56:36;;;;;;;24.77;14.27;;;5.50;99.90;;;;;;5061995;28;20271;-47
2022/03/28 02:59:03;;;;;;;22.07;12.90;;;5.50;99.90;;;;;;5065072;28;20785;-47
2022/03/28 03:01:29;;;;;;;20.23;13.23;;;5.50;99.90;;;;;;5056582;28;20451;-47
2022/03/28 03:03:56;;;;;;;22.63;12.67;;;5.50;99.90;;;;;;5065221;28;20198;-48
2022/03/28 03:06:25;;;;;;;19.83;11.93;;;5.50;99.90;;;;;;5054808;28;20218;-52
2022/03/28 03:08:51;;;;;;;16.43;11.83;;;5.50;99.90;;;;;;5048431;28;20594;-49
2022/03/28 03:11:18;;;;;;;15.80;9.60;;;5.50;99.90;;;;;;5061882;28;20195;-50
2022/03/28 03:13:46;;;;;;;16.83;10.23;;;5.50;99.90;;;;;;5064152;28;20197;-51
2022/03/28 03:16:12;;;;;;;19.33;9.97;;;5.50;99.90;;;;;;5056674;28;20237;-53
2022/03/28 03:18:39;;;;;;;11.93;9.10;;;5.50;99.90;;;;;;5063515;28;20539;-49
2022/03/28 03:21:07;;;;;;;14.00;8.50;;;5.40;99.90;;;;;;5058654;28;20285;-53
2022/03/28 03:23:35;;;;;;;13.40;8.03;;;5.40;99.90;;;;;;5061718;28;20225;-48
2022/03/28 03:26:02;;;;;;;9.60;6.90;;;5.40;99.90;;;;;;5045168;28;20214;-52
2022/03/28 03:28:28;;;;;;;10.87;7.43;;;5.40;99.90;;;;;;5060680;28;20194;-48
2022/03/28 03:30:56;;;;;;;11.47;6.70;;;5.40;99.90;;;;;;5064335;28;20625;-48
2022/03/28 03:33:23;;;;;;;9.07;5.83;;;5.40;99.90;;;;;;5055884;28;20256;-50
2022/03/28 03:35:50;;;;;;;6.37;4.57;;;5.50;99.90;;;;;;5063552;28;20578;-46
2022/03/28 03:38:16;;;;;;;5.37;4.40;;;5.40;99.90;;;;;;5055713;28;20211;-51
2022/03/28 03:40:45;;;;;;;5.53;4.20;;;5.40;99.90;;;;;;5049636;28;20672;-52
2022/03/28 03:43:12;;;;;;;3.60;3.30;;;5.50;99.90;;;;;;5062309;28;20198;-51
2022/03/28 03:45:39;;;;;;;5.80;3.63;;;5.40;99.90;;;;;;5061701;28;20210;-48
2022/03/28 03:48:06;;;;;;;4.30;3.47;;;5.50;99.90;;;;;;5058124;28;20229;-50
2022/03/28 03:50:33;;;;;;;4.60;4.10;;;5.50;99.90;;;;;;5061392;28;20927;-48
2022/03/28 03:53:00;;;;;;;4.83;3.87;;;5.40;99.90;;;;;;5058535;28;20667;-50
2022/03/28 03:55:27;;;;;;;4.30;3.90;;;5.40;99.90;;;;;;5059946;28;20210;-47
2022/03/28 03:57:54;;;;;;;5.07;3.70;;;5.40;99.90;;;;;;5049893;28;20206;-50
2022/03/28 04:00:23;;;;;;;4.73;3.90;;;5.40;99.90;;;;;;5059801;28;20297;-52
2022/03/28 04:02:50;;;;;;;4.77;3.50;;;5.40;99.90;;;;;;5063794;28;20199;-48
2022/03/28 04:05:18;;;;;;;4.00;3.70;;;5.40;99.90;;;;;;5056235;28;20226;-50
2022/03/28 04:07:44;;;;;;;4.93;3.70;;;5.40;99.90;;;;;;5056863;28;20225;-53
2022/03/28 04:10:12;;;;;;;4.37;3.97;;;5.40;99.90;;;;;;5062019;28;20203;-52
2022/03/28 04:12:39;;;;;;;8.03;4.43;;;5.40;99.90;;;;;;5048613;28;20206;-50
2022/03/28 04:15:08;;;;;;;10.47;4.30;;;5.40;99.90;;;;;;5062631;28;20303;-51
2022/03/28 04:17:42;;;;;;;5.33;4.40;;;5.40;99.90;;;;;;5059898;28;20206;-48
2022/03/28 04:20:11;;;;;;;6.33;4.33;;;5.40;99.90;;;;;;5057782;28;20207;-52
2022/03/28 04:22:39;;;;;;;8.83;4.93;;;5.40;99.90;;;;;;5062213;28;20205;-48
2022/03/28 04:25:07;;;;;;;9.00;4.50;;;5.40;99.90;;;;;;5056668;28;20222;-52
2022/03/28 04:27:34;;;;;;;7.17;3.37;;;5.40;99.90;;;;;;5047305;28;20222;-47
2022/03/28 04:30:01;;;;;;;4.17;3.77;;;5.40;99.90;;;;;;5066584;28;20563;-49
2022/03/28 04:32:29;;;;;;;4.90;2.60;;;5.30;99.90;;;;;;5058765;28;20194;-49
2022/03/28 04:34:56;;;;;;;3.73;2.60;;;5.30;99.90;;;;;;5058062;28;20214;-49
2022/03/28 04:37:23;;;;;;;3.60;2.73;;;5.20;99.90;;;;;;5055038;28;20195;-50
2022/03/28 04:39:50;;;;;;;4.63;2.47;;;5.20;99.90;;;;;;5057834;28;20202;-48
2022/03/28 04:42:17;;;;;;;3.23;2.93;;;5.20;99.90;;;;;;5060450;28;21792;-54
2022/03/28 04:44:44;;;;;;;3.07;2.63;;;5.20;99.90;;;;;;5042859;28;20210;-51
2022/03/28 04:47:10;;;;;;;5.50;3.23;;;5.20;99.90;;;;;;5054292;28;20282;-51
2022/03/28 04:49:39;;;;;;;4.13;3.30;;;5.20;99.90;;;;;;5057698;28;20230;-49
2022/03/28 04:52:06;;;;;;;4.20;3.03;;;5.30;99.90;;;;;;5058133;28;20579;-49
2022/03/28 04:54:36;;;;;;;4.90;3.23;;;5.30;99.90;;;;;;5053974;28;20800;-49
2022/03/28 04:57:03;;;;;;;3.00;2.70;;;5.30;99.90;;;;;;5061502;28;20285;-46
2022/03/28 04:59:30;;;;;;;5.10;2.33;;;5.30;99.90;;;;;;5045040;28;20202;-51
2022/03/28 05:01:57;;;;;;;4.60;2.33;;;5.30;99.90;;;;;;5062495;28;20207;-53
2022/03/28 05:04:24;;;;;;;3.83;2.50;;;5.20;99.90;;;;;;5052558;28;20978;-49
2022/03/28 05:06:53;;;;;;;3.73;2.93;;;5.20;99.90;;;;;;5049664;28;20218;-48
2022/03/28 05:09:20;;;;;;;4.33;2.77;;;5.20;99.90;;;;;;5053717;28;20210;-53
2022/03/28 05:11:47;;;;;;;5.20;2.97;;;5.20;99.90;;;;;;5062933;28;20195;-52
2022/03/28 05:14:13;;;;;;;4.90;3.30;;;5.20;99.90;;;;;;5052639;28;20612;-55
2022/03/28 05:16:41;;;;;;;4.40;3.13;;;5.20;99.90;;;;;;5047450;28;20214;-50
2022/03/28 05:19:07;;;;;;;3.80;2.83;;;5.30;99.90;;;;;;5056516;28;20203;-51
2022/03/28 05:21:34;;;;;;;3.10;2.23;;;5.20;99.90;;;;;;5052646;28;20207;-49
2022/03/28 05:24:03;;;;;;;3.03;2.67;;;5.20;99.90;;;;;;5057019;28;20215;-48
2022/03/28 05:26:30;;;;;;;2.40;2.20;;;5.20;99.90;;;;;;5057700;28;20222;-46
2022/03/28 05:28:56;;;;;;;3.63;2.30;;;5.20;99.90;;;;;;5062524;28;20198;-48
2022/03/28 05:31:24;;;;;;;4.07;2.43;;;5.20;99.90;;;;;;5044678;28;20207;-51
2022/03/28 05:33:50;;;;;;;3.90;2.60;;;5.20;99.90;;;;;;5052470;28;20210;-46
2022/03/28 05:39:07;;;;;;;3.60;2.70;;;5.10;99.90;;;;;;5054214;28;20202;-51
2022/03/28 05:41:34;;;;;;;3.67;3.27;;;5.20;99.90;;;;;;5047853;28;20243;-49
2022/03/28 05:44:01;;;;;;;5.70;3.13;;;5.20;99.90;;;;;;5052463;28;20275;-48
2022/03/28 05:46:28;;;;;;;5.90;3.53;;;5.10;99.90;;;;;;5041348;28;20236;-53
2022/03/28 05:48:55;;;;;;;4.40;3.23;;;5.20;99.90;;;;;;5054879;28;20190;-53
2022/03/28 05:51:22;;;;;;;6.10;3.77;;;5.20;99.90;;;;;;5057895;28;20190;-52
2022/03/28 05:53:49;;;;;;;9.57;5.43;;;5.20;99.90;;;;;;5055154;28;20207;-49
2022/03/28 05:56:17;;;;;;;6.73;5.50;;;5.20;99.90;;;;;;5049216;28;20225;-51
2022/03/28 05:58:44;;;;;;;8.63;5.37;;;5.20;99.90;;;;;;5055767;28;20214;-46
2022/03/28 06:01:11;;;;;;;5.50;4.63;;;5.10;99.90;;;;;;5057402;28;20213;-52
2022/03/28 06:03:38;;;;;;;6.90;4.67;;;5.20;99.90;;;;;;5057393;28;20198;-50
2022/03/28 06:06:07;;;;;;;7.93;5.93;;;5.20;99.90;;;;;;5064838;28;20284;-52
2022/03/28 06:08:33;;;;;;;7.67;4.97;;;5.20;99.90;;;;;;5062907;28;20206;-46
2022/03/28 06:11:01;;;;;;;9.47;5.07;;;5.20;99.90;;;;;;5060660;28;20211;-47
2022/03/28 06:13:30;;;;;;;5.03;4.40;;;5.30;99.90;;;;;;5060887;28;20269;-49
2022/03/28 06:15:56;;;;;;;8.40;4.97;;;5.20;99.90;;;;;;5059355;28;20287;-49
2022/03/28 06:18:23;;;;;;;9.03;4.90;;;5.30;99.90;;;;;;5043975;28;20203;-49
2022/03/28 06:20:50;;;;;;;7.77;5.03;;;5.30;99.90;;;;;;5057059;28;20203;-51
2022/03/28 06:23:17;;;;;;;7.87;4.93;;;5.30;99.90;;;;;;5059643;28;20202;-47
2022/03/28 06:25:44;;;;;;;6.60;4.57;;;5.30;99.90;;;;;;5053511;28;20269;-50
2022/03/28 06:28:12;;;;;;;5.80;4.27;;;5.30;99.90;;;;;;5064327;28;20210;-50
2022/03/28 06:30:41;;;;;;;5.20;3.70;;;5.30;99.90;;;;;;5058936;28;20198;-52
2022/03/28 06:33:07;;;;;;;4.83;4.00;;;5.30;99.90;;;;;;5052784;28;20252;-51
2022/03/28 06:35:34;;;;;;;4.93;4.33;;;5.40;99.90;;;;;;5049824;28;20207;-48
2022/03/28 06:38:01;;;;;;;5.47;4.37;;;5.40;99.90;;;;;;5062386;28;20216;-49
2022/03/28 06:40:28;;;;;;;7.90;4.47;;;5.40;99.90;;;;;;5060228;28;20191;-47
2022/03/28 06:42:54;;;;;;;8.63;5.20;;;5.50;99.90;;;;;;5051163;28;20344;-49
2022/03/28 06:45:21;;;;;;;8.83;5.13;;;5.50;99.90;;;;;;5054150;28;20644;-50
2022/03/28 06:47:51;;;;;;;8.53;5.53;;;5.60;99.90;;;;;;5062297;28;20218;-50
2022/03/28 06:50:20;;;;;;;8.53;5.40;;;5.50;99.90;;;;;;5048330;28;20583;-51
2022/03/28 06:52:47;;;;;;;7.50;5.53;;;5.60;99.90;;;;;;5058602;28;20206;-52
2022/03/28 06:55:14;;;;;;;7.13;5.43;;;5.60;99.90;;;;;;5058072;28;20242;-52
2022/03/28 06:57:41;;;;;;;7.50;5.53;;;5.60;99.90;;;;;;5051605;28;20237;-46
2022/03/28 07:00:10;;;;;;;6.27;4.93;;;5.60;99.90;;;;;;5063863;28;20202;-53
2022/03/28 07:02:37;;;;;;;5.50;4.33;;;5.60;99.90;;;;;;5056843;28;20875;-49
2022/03/28 07:05:06;;;;;;;5.80;4.53;;;5.60;99.90;;;;;;5048777;28;20276;-49
2022/03/28 07:07:40;;;;;;;6.13;4.10;;;5.60;99.90;;;;;;5059873;28;20211;-47
2022/03/28 07:10:08;;;;;;;3.27;2.83;;;5.60;99.90;;;;;;5063896;28;20202;-50
2022/03/28 07:12:36;;;;;;;3.73;2.40;;;5.60;99.90;;;;;;5050483;28;20213;-47
2022/03/28 07:15:02;;;;;;;2.57;2.37;;;5.60;99.90;;;;;;5063104;28;20714;-51
2022/03/28 07:17:30;;;;;;;3.37;2.57;;;5.60;99.90;;;;;;5054667;28;20198;-48
2022/03/28 07:19:56;;;;;;;3.47;2.53;;;5.60;99.90;;;;;;5064106;28;20309;-52
2022/03/28 07:22:24;;;;;;;3.20;2.17;;;5.60;99.90;;;;;;5047110;28;20209;-52
2022/03/28 07:24:51;;;;;;;3.27;2.60;;;5.70;99.90;;;;;;5063831;28;20223;-50
2022/03/28 07:27:18;;;;;;;4.17;2.47;;;5.60;99.90;;;;;;5052858;28;20227;-49
2022/03/28 07:29:45;;;;;;;4.00;3.40;;;5.70;99.90;;;;;;5061719;28;20893;-48
2022/03/28 07:32:12;;;;;;;4.80;3.13;;;5.70;99.90;;;;;;5060589;28;20214;-51
2022/03/28 07:34:39;;;;;;;3.93;3.20;;;5.70;99.90;;;;;;5058309;28;20203;-51
2022/03/28 07:37:06;;;;;;;4.93;3.30;;;5.80;99.90;;;;;;5049470;28;20207;-47
2022/03/28 07:39:37;;;;;;;4.60;3.73;;;5.80;99.90;;;;;;5055531;28;20183;-50
2022/03/28 07:42:06;;;;;;;6.67;4.20;;;5.80;99.90;;;;;;5063814;28;20297;-52
2022/03/28 07:44:34;;;;;;;5.70;3.80;;;5.80;99.90;;;;;;5044026;28;20290;-51
2022/03/28 07:47:02;;;;;;;5.80;4.27;;;5.80;99.90;;;;;;5063570;28;20226;-47
2022/03/28 07:49:30;;;;;;;4.27;3.87;;;5.80;99.90;;;;;;5054487;28;20202;-47
2022/03/28 07:51:57;;;;;;;4.53;3.47;;;5.80;99.90;;;;;;5055020;28;20267;-48
2022/03/28 07:54:24;;;;;;;4.23;3.40;;;5.80;99.90;;;;;;5060597;28;20667;-48
2022/03/28 07:56:52;;;;;;;3.80;3.30;;;5.80;99.90;;;;;;5062790;28;20211;-50
2022/03/28 07:59:18;;;;;;;3.83;3.50;;;5.80;99.90;;;;;;5050138;28;20710;-52
2022/03/28 08:01:46;;;;;;;4.70;3.03;;;5.80;99.90;;;;;;5061700;28;20257;-49
2022/03/28 08:04:13;;;;;;;3.53;3.23;;;5.90;99.90;;;;;;5054528;28;20207;-49
2022/03/28 08:06:40;;;;;;;3.97;3.03;;;5.90;99.90;;;;;;5045291;28;20222;-50
2022/03/28 08:09:07;;;;;;;3.73;3.37;;;6.00;99.90;;;;;;5064734;28;20801;-52
2022/03/28 08:11:33;;;;;;;3.87;3.17;;;6.00;99.90;;;;;;5055839;28;20923;-50
2022/03/28 08:14:03;;;;;;;3.53;3.23;;;6.00;99.90;;;;;;5058198;28;20291;-51
2022/03/28 08:16:30;;;;;;;4.27;3.50;;;6.00;99.90;;;;;;5053026;28;20440;-51
2022/03/28 08:18:56;;;;;;;3.47;3.17;;;6.00;99.90;;;;;;5063812;28;20194;-50
2022/03/28 08:21:23;;;;;;;5.40;3.90;;;6.10;99.90;;;;;;5042705;28;20206;-54
2022/03/28 08:23:50;;;;;;;6.27;3.43;;;6.10;99.90;;;;;;5061341;28;20202;-51
2022/03/28 08:26:17;;;;;;;3.83;3.53;;;6.10;99.90;;;;;;5057695;28;20318;-54
2022/03/28 08:28:44;;;;;;;6.23;3.83;;;6.20;99.90;;;;;;5056917;28;20211;-51
2022/03/28 08:31:12;;;;;;;3.80;3.50;;;6.20;99.90;;;;;;5056928;28;20294;-54
2022/03/28 08:33:39;;;;;;;3.60;3.30;;;6.20;99.90;;;;;;5059576;28;20198;-52
2022/03/28 08:36:05;;;;;;;3.63;3.03;;;6.20;99.90;;;;;;5057241;28;20234;-51
2022/03/28 08:38:35;;;;;;;2.80;2.60;;;6.30;99.90;;;;;;5050296;28;20194;-51
2022/03/28 08:41:03;;;;;;;3.37;2.57;;;6.30;99.90;;;;;;5060998;28;20711;-54
2022/03/28 08:43:30;;;;;;;3.27;2.97;;;6.40;99.90;;;;;;5047268;28;20220;-50
2022/03/28 08:46:01;;;;;;;3.03;2.83;;;6.50;99.90;;;;;;5056242;28;20707;-50
2022/03/28 08:48:33;;;;;;;2.83;2.60;;;6.50;99.90;;;;;;5053875;28;20218;-50
2022/03/28 08:51:00;;;;;;;3.00;2.70;;;6.50;99.90;;;;;;5058708;28;20213;-52
2022/03/28 08:53:26;;;;;;;3.57;2.77;;;6.60;99.90;;;;;;5045332;28;20910;-52
2022/03/28 08:55:53;;;;;;;3.27;3.07;;;6.60;99.90;;;;;;5061449;28;20218;-49
2022/03/28 08:58:20;;;;;;;4.13;3.27;;;6.60;99.90;;;;;;5056350;28;20202;-51
2022/03/28 09:00:47;;;;;;;3.13;2.83;;;6.70;99.90;;;;;;5054691;28;20239;-52
2022/03/28 09:03:14;;;;;;;3.47;3.00;;;6.70;99.90;;;;;;5060549;28;20203;-51
2022/03/28 09:05:47;;;;;;;3.20;2.90;;;6.80;99.90;;;;;;5057173;28;20221;-51
2022/03/28 09:08:14;;;;;;;3.60;3.30;;;6.80;99.90;;;;;;5049523;28;20214;-55
2022/03/28 09:10:46;;;;;;;3.37;3.07;;;6.90;99.90;;;;;;5056083;28;20191;-51
2022/03/28 09:13:16;;;;;;;3.50;2.73;;;6.90;99.90;;;;;;5056993;28;20197;-51
2022/03/28 09:15:45;;;;;;;3.67;3.07;;;6.80;99.90;;;;;;5055543;28;20525;-51
2022/03/28 09:18:23;;;;;;;4.37;3.00;;;6.90;99.90;;;;;;5055804;28;20202;-54
2022/03/28 09:20:53;;;;;;;3.40;2.60;;;6.90;99.90;;;;;;5062958;28;20255;-50
2022/03/28 09:23:42;;;;;;;4.00;2.43;;;6.90;99.90;;;;;;5042274;28;20206;-53
2022/03/28 09:26:18;;;;;;;3.50;2.40;;;7.00;99.90;;;;;;5051911;28;20403;-52
2022/03/28 09:28:53;;;;;;;3.43;2.23;;;7.20;99.90;;;;;;5059375;28;20217;-50
2022/03/28 09:31:25;;;;;;;4.63;2.03;;;7.30;99.90;;;;;;5054257;28;20210;-47
2022/03/28 09:33:57;;;;;;;2.73;2.33;;;7.30;99.90;;;;;;5054129;28;20285;-45
2022/03/28 09:36:43;;;;;;;3.10;2.20;;;7.40;99.90;;;;;;5051659;28;20562;-47
2022/03/28 09:39:12;;;;;;;2.40;2.20;;;7.40;99.90;;;;;;5055849;28;20385;-45
2022/03/28 09:41:39;;;;;;;2.17;2.07;;;7.50;99.90;;;;;;5046241;28;20206;-45
2022/03/28 09:44:07;;;;;;;3.23;2.23;;;7.50;99.90;;;;;;5061746;28;20203;-43
2022/03/28 09:46:37;;;;;;;4.27;2.10;;;7.60;99.90;;;;;;5051565;28;20226;-45
2022/03/28 09:49:04;;;;;;;2.93;2.23;;;7.60;99.90;;;;;;5056485;28;20310;-43
2022/03/28 09:51:34;;;;;;;2.43;2.20;;;7.70;99.90;;;;;;5057505;28;20908;-46
2022/03/28 09:54:02;;;;;;;2.57;2.37;;;7.90;99.90;;;;;;5051537;28;20717;-44
2022/03/28 09:56:29;;;;;;;4.07;2.63;;;7.90;99.90;;;;;;5043462;28;20225;-43
2022/03/28 09:58:59;;;;;;;3.00;2.30;;;8.00;99.90;;;;;;5061925;28;20183;-44
2022/03/28 10:01:29;;;;;;;2.93;2.40;;;8.10;99.90;;;;;;5052843;28;20260;-48
2022/03/28 10:04:00;;;;;;;4.63;2.50;;;8.20;99.90;;;;;;5056616;28;20207;-47
2022/03/28 10:06:28;;;;;;;3.43;2.30;;;8.20;99.90;;;;;;5051563;28;20314;-43
2022/03/28 10:08:54;;;;;;;3.80;2.20;;;8.40;99.90;;;;;;5051183;28;20214;-46
2022/03/28 10:11:23;;;;;;;4.20;2.77;;;8.40;99.90;;;;;;5045273;28;20686;-48
2022/03/28 10:13:50;;;;;;;5.10;2.90;;;8.40;99.90;;;;;;5060309;28;20198;-44
2022/03/28 10:16:17;;;;;;;2.97;2.67;;;8.50;99.90;;;;;;5052465;28;20246;-42
2022/03/28 10:18:45;;;;;;;3.17;2.70;;;8.60;99.90;;;;;;5055297;28;20199;-43
2022/03/28 10:21:18;;;;;;;3.07;2.70;;;8.80;99.90;;;;;;5055091;28;20552;-49
2022/03/28 10:23:51;;;;;;;4.20;2.83;;;8.80;99.90;;;;;;5055605;28;20351;-43
2022/03/28 10:26:24;;;;;;;2.93;2.63;;;9.00;99.90;;;;;;5049963;28;20289;-44
2022/03/28 10:29:07;;;;;;;2.87;2.60;;;9.00;99.90;;;;;;5057805;28;20214;-46
2022/03/28 10:31:34;;;;;;;6.27;3.47;;;8.90;99.90;;;;;;5052201;28;20210;-45
2022/03/28 10:34:03;;;;;;;4.60;2.70;;;8.80;99.90;;;;;;5056570;28;20209;-42
2022/03/28 10:36:32;;;;;;;4.70;2.93;;;9.00;99.90;;;;;;5050488;28;20299;-45
2022/03/28 10:39:33;;;;;;;3.67;2.73;;;9.10;99.90;;;;;;5052194;28;20195;-42
2022/03/28 10:42:17;;;;;;;4.70;3.30;;;9.20;99.90;;;;;;5039865;28;20222;-43
2022/03/28 10:45:02;;;;;;;3.40;3.10;;;9.30;99.90;;;;;;5049179;28;20194;-43
2022/03/28 10:47:42;;;;;;;5.00;3.37;;;9.30;99.90;;;;;;5052248;28;20199;-43
2022/03/28 10:50:10;;;;;;;3.73;3.43;;;9.30;99.90;;;;;;5059068;28;20286;-44
2022/03/28 10:52:37;;;;;;;6.00;4.27;;;9.30;99.90;;;;;;5056285;28;20392;-48
2022/03/28 10:55:08;;;;;;;5.40;4.30;;;9.20;99.90;;;;;;5052233;28;20238;-43
2022/03/28 10:57:36;;;;;;;5.73;5.17;;;9.10;99.90;;;;;;5048024;28;20209;-44
2022/03/28 11:00:09;;;;;;;5.93;5.33;;;9.20;99.90;;;;;;5059611;28;20206;-42
2022/03/28 11:02:37;;;;;;;8.20;6.33;;;9.30;99.90;;;;;;5059144;28;20256;-42
2022/03/28 11:05:08;;;;;;;9.77;6.73;;;9.40;99.90;;;;;;5059453;28;20234;-43
2022/03/28 11:07:35;;;;;;;6.73;6.13;;;9.60;99.90;;;;;;5053614;28;20298;-46
2022/03/28 11:10:05;;;;;;;9.47;8.40;;;9.60;99.90;;;;;;5058650;28;20555;-45
2022/03/28 11:12:34;;;;;;;10.70;8.23;;;9.60;99.90;;;;;;5057178;28;20252;-44
2022/03/28 11:15:05;;;;;;;9.07;8.27;;;9.60;99.90;;;;;;5045295;28;20226;-46
2022/03/28 11:17:36;;;;;;;8.33;7.47;;;9.50;99.90;;;;;;5058906;28;20477;-45
2022/03/28 11:20:11;;;;;;;8.53;7.83;;;9.50;99.90;;;;;;5055042;28;20589;-43
2022/03/28 11:22:55;;;;;;;6.20;5.40;;;9.50;99.90;;;;;;5056538;28;20208;-44
2022/03/28 11:25:39;;;;;;;8.37;5.37;;;9.60;99.90;;;;;;5047003;28;21036;-49
2022/03/28 11:28:23;;;;;;;7.57;4.20;;;9.70;99.90;;;;;;5061517;28;20218;-48
2022/03/28 11:30:59;;;;;;;5.67;3.90;;;9.70;99.90;;;;;;5063602;28;20217;-49
2022/03/28 11:33:34;;;;;;;3.53;3.13;;;9.80;99.90;;;;;;5052833;28;20265;-46
2022/03/28 11:36:04;;;;;;;3.60;3.07;;;9.80;99.90;;;;;;5051954;28;20230;-48
2022/03/28 11:38:33;;;;;;;4.10;3.10;;;9.90;99.90;;;;;;5061356;28;20206;-44
2022/03/28 11:41:02;;;;;;;3.13;2.93;;;9.80;99.90;;;;;;5051336;28;20207;-45
2022/03/28 11:43:31;;;;;;;3.70;2.80;;;9.80;99.90;;;;;;5063533;28;20655;-42
2022/03/28 11:45:59;;;;;;;3.33;3.03;;;9.80;99.90;;;;;;5046830;28;20222;-45
2022/03/28 11:48:26;;;;;;;6.40;3.97;;;9.90;99.90;;;;;;5062907;28;20213;-44
2022/03/28 11:50:55;;;;;;;6.63;4.10;;;10.00;99.90;;;;;;5052388;28;20202;-46
2022/03/28 11:53:22;;;;;;;5.63;4.67;;;9.80;99.90;;;;;;5073928;28;20187;-43
2022/03/28 11:55:53;;;;;;;6.73;3.90;;;9.90;99.90;;;;;;5052946;28;20226;-45
2022/03/28 11:58:32;;;;;;;7.63;4.27;;;10.00;99.90;;;;;;5057748;28;20187;-44
2022/03/28 12:01:07;;;;;;;7.07;4.40;;;10.00;99.90;;;;;;5046775;28;20582;-43
2022/03/28 12:03:34;;;;;;;6.37;4.17;;;10.00;99.90;;;;;;5061923;28;20824;-44
2022/03/28 12:06:02;;;;;;;4.60;4.10;;;10.10;99.90;;;;;;5053694;28;20234;-46
2022/03/28 12:08:30;;;;;;;7.70;4.70;;;10.20;99.90;;;;;;5061327;28;20207;-44
2022/03/28 12:10:57;;;;;;;9.20;4.53;;;10.30;99.90;;;;;;5053507;28;20574;-45
2022/03/28 12:13:25;;;;;;;6.03;4.10;;;10.40;99.90;;;;;;5050956;28;20320;-46
2022/03/28 12:15:56;;;;;;;5.60;4.23;;;10.30;99.90;;;;;;5053905;28;20233;-46
2022/03/28 12:18:25;;;;;;;6.70;4.20;;;10.30;99.90;;;;;;5060544;28;20194;-45
2022/03/28 12:20:53;;;;;;;6.00;4.40;;;10.30;99.90;;;;;;5058004;28;20562;-45
2022/03/28 12:23:25;;;;;;;7.80;4.80;;;10.20;99.90;;;;;;5058591;28;20191;-45
2022/03/28 12:25:53;;;;;;;7.80;3.97;;;10.10;99.90;;;;;;5057435;28;20222;-45
2022/03/28 12:28:29;;;;;;;7.27;5.00;;;10.10;99.90;;;;;;5055666;28;20230;-44
2022/03/28 12:30:59;;;;;;;8.30;4.13;;;10.10;99.90;;;;;;5048435;28;20205;-46
2022/03/28 12:33:27;;;;;;;9.10;5.27;;;10.10;99.90;;;;;;5061348;28;20191;-44
2022/03/28 12:35:58;;;;;;;6.67;4.57;;;10.00;99.90;;;;;;5054529;28;20229;-44
2022/03/28 12:38:29;;;;;;;9.20;4.83;;;10.00;99.90;;;;;;5060762;28;20195;-44
2022/03/28 12:41:00;;;;;;;7.57;5.50;;;10.00;99.90;;;;;;5042714;28;20202;-44
2022/03/28 12:43:28;;;;;;;5.90;4.87;;;9.90;99.90;;;;;;5050705;28;20240;-44
2022/03/28 12:45:56;;;;;;;7.00;4.90;;;9.80;99.90;;;;;;5041900;28;20218;-46
2022/03/28 12:48:23;;;;;;;5.60;5.10;;;9.80;99.90;;;;;;5049846;28;20209;-47
2022/03/28 12:50:53;;;;;;;6.27;5.67;;;9.70;99.90;;;;;;5047287;28;20308;-45
2022/03/28 12:53:24;;;;;;;5.93;5.03;;;9.60;99.90;;;;;;5050305;28;21152;-44
2022/03/28 12:55:53;;;;;;;8.57;5.73;;;9.70;99.90;;;;;;5055245;28;20267;-45
2022/03/28 12:58:33;;;;;;;8.80;5.30;;;9.70;99.90;;;;;;5051842;28;20199;-43
2022/03/28 13:01:05;;;;;;;8.60;5.57;;;9.70;99.90;;;;;;5053306;28;20276;-45
2022/03/28 13:03:33;;;;;;;7.33;6.07;;;9.70;99.90;;;;;;5049462;28;20297;-46